createdAt,value
2023-05-12T00:00:03.260Z,5.30
2023-05-12T00:01:03.190Z,8.10
2023-05-12T00:02:03.195Z,5.50
2023-05-12T00:03:03.248Z,5.90
2023-05-12T00:04:03.366Z,4.90
2023-05-12T00:05:03.170Z,6.00
2023-05-12T00:06:03.153Z,6.30
2023-05-12T00:07:03.135Z,4.50
2023-05-12T00:08:03.137Z,5.10
2023-05-12T00:09:03.108Z,6.80
2023-05-12T00:10:03.113Z,6.30
2023-05-12T00:11:03.072Z,6.30
2023-05-12T00:12:03.071Z,5.50
2023-05-12T00:13:03.044Z,7.30
2023-05-12T00:14:03.077Z,5.40
2023-05-12T00:15:03.043Z,6.10
2023-05-12T00:16:03.067Z,9.40
2023-05-12T00:17:03.009Z,5.10
2023-05-12T00:18:03.088Z,6.40
2023-05-12T00:19:03.047Z,5.10
2023-05-12T00:20:03.011Z,5.10
2023-05-12T00:21:02.974Z,6.70
2023-05-12T00:22:02.977Z,4.30
2023-05-12T00:23:02.958Z,5.70
2023-05-12T00:24:03.035Z,9.50
2023-05-12T00:25:02.920Z,5.40
2023-05-12T00:26:02.967Z,5.20
2023-05-12T00:27:02.909Z,3.60
2023-05-12T00:28:02.912Z,6.40
2023-05-12T00:29:02.874Z,7.60
2023-05-12T00:30:02.899Z,5.90
2023-05-12T00:31:02.882Z,5.20
2023-05-12T00:32:02.925Z,11.50
2023-05-12T00:33:02.903Z,6.00
2023-05-12T00:34:02.847Z,6.30
2023-05-12T00:35:02.824Z,5.80
2023-05-12T00:36:02.860Z,4.90
2023-05-12T00:37:02.852Z,8.20
2023-05-12T00:38:02.811Z,4.10
2023-05-12T00:39:02.772Z,6.40
2023-05-12T00:40:02.787Z,8.80
2023-05-12T00:41:02.754Z,5.40
2023-05-12T00:42:02.783Z,5.00
2023-05-12T00:43:02.886Z,5.60
2023-05-12T00:44:02.773Z,6.50
2023-05-12T00:45:02.714Z,4.80
2023-05-12T00:46:02.791Z,6.30
2023-05-12T00:47:02.690Z,5.70
2023-05-12T00:48:02.925Z,6.50
2023-05-12T00:49:02.707Z,3.10
2023-05-12T00:50:02.729Z,5.30
2023-05-12T00:51:02.645Z,6.30
2023-05-12T00:52:02.693Z,9.10
2023-05-12T00:53:02.640Z,5.90
2023-05-12T00:54:02.651Z,6.90
2023-05-12T00:55:02.623Z,5.30
2023-05-12T00:56:02.628Z,6.50
2023-05-12T00:57:02.585Z,4.40
2023-05-12T00:58:02.628Z,5.60
2023-05-12T00:59:02.636Z,8.60
2023-05-12T01:00:02.582Z,4.40
2023-05-12T01:01:02.603Z,5.20
2023-05-12T01:02:02.646Z,5.00
2023-05-12T01:03:02.705Z,4.20
2023-05-12T01:04:02.540Z,4.10
2023-05-12T01:05:02.519Z,5.40
2023-05-12T01:06:02.534Z,7.20
2023-05-12T01:07:02.540Z,4.30
2023-05-12T01:08:02.497Z,4.90
2023-05-12T01:09:02.458Z,3.20
2023-05-12T01:10:02.496Z,8.00
2023-05-12T01:11:02.446Z,4.10
2023-05-12T01:12:02.457Z,5.90
2023-05-12T01:13:02.416Z,5.70
2023-05-12T01:14:02.437Z,3.40
2023-05-12T01:15:02.409Z,4.70
2023-05-12T01:16:02.433Z,4.30
2023-05-12T01:17:02.384Z,4.40
2023-05-12T01:18:02.465Z,4.80
2023-05-12T01:19:02.370Z,5.20
2023-05-12T01:20:02.375Z,5.40
2023-05-12T01:21:02.367Z,6.70
2023-05-12T01:22:02.359Z,5.90
2023-05-12T01:23:02.341Z,5.00
2023-05-12T01:24:02.334Z,5.60
2023-05-12T01:25:02.311Z,5.30
2023-05-12T01:26:02.349Z,7.50
2023-05-12T01:27:02.289Z,4.70
2023-05-12T01:28:02.293Z,6.40
2023-05-12T01:29:02.281Z,5.40
2023-05-12T01:30:02.268Z,6.10
2023-05-12T01:31:02.343Z,5.20
2023-05-12T01:32:02.262Z,3.40
2023-05-12T01:33:02.234Z,5.00
2023-05-12T01:34:02.233Z,4.40
2023-05-12T01:35:02.212Z,5.80
2023-05-12T01:36:02.194Z,5.40
2023-05-12T01:37:02.159Z,8.00
2023-05-12T01:38:02.197Z,6.20
2023-05-12T01:39:02.181Z,6.30
2023-05-12T01:40:02.177Z,7.30
2023-05-12T01:41:02.134Z,5.20
2023-05-12T01:42:02.155Z,6.30
2023-05-12T01:43:02.153Z,5.40
2023-05-12T01:44:02.116Z,4.90
2023-05-12T01:45:02.208Z,6.40
2023-05-12T01:46:02.198Z,3.70
2023-05-12T01:47:02.177Z,4.40
2023-05-12T01:48:02.130Z,4.70
2023-05-12T01:49:02.060Z,5.00
2023-05-12T01:50:02.117Z,5.70
2023-05-12T01:51:02.020Z,3.10
2023-05-12T01:52:02.027Z,7.40
2023-05-12T01:53:02.000Z,7.30
2023-05-12T01:54:02.054Z,4.20
2023-05-12T01:55:01.993Z,4.60
2023-05-12T01:56:01.990Z,5.30
2023-05-12T01:57:01.965Z,3.80
2023-05-12T01:58:01.954Z,5.40
2023-05-12T01:59:01.991Z,5.20
2023-05-12T02:00:01.971Z,7.60
2023-05-12T02:01:01.910Z,5.20
2023-05-12T02:02:01.970Z,5.90
2023-05-12T02:03:01.959Z,4.10
2023-05-12T02:04:02.056Z,3.50
2023-05-12T02:05:01.881Z,3.10
2023-05-12T02:06:01.878Z,5.60
2023-05-12T02:07:01.877Z,4.50
2023-05-12T02:08:01.830Z,6.10
2023-05-12T02:09:01.864Z,8.00
2023-05-12T02:10:01.839Z,6.00
2023-05-12T02:11:01.835Z,6.60
2023-05-12T02:12:01.813Z,5.10
2023-05-12T02:13:01.832Z,4.70
2023-05-12T02:14:01.775Z,4.10
2023-05-12T02:15:01.796Z,3.90
2023-05-12T02:16:01.844Z,4.70
2023-05-12T02:17:01.762Z,5.20
2023-05-12T02:18:01.759Z,5.60
2023-05-12T02:19:01.857Z,5.10
2023-05-12T02:20:01.735Z,5.70
2023-05-12T02:21:01.768Z,5.50
2023-05-12T02:22:01.717Z,5.10
2023-05-12T02:23:01.698Z,6.20
2023-05-12T02:24:01.665Z,4.00
2023-05-12T02:25:01.672Z,5.10
2023-05-12T02:26:01.651Z,4.60
2023-05-12T02:27:01.691Z,4.60
2023-05-12T02:28:01.641Z,6.50
2023-05-12T02:29:01.667Z,4.60
2023-05-12T02:30:01.613Z,5.10
2023-05-12T02:31:01.627Z,5.00
2023-05-12T02:32:01.625Z,3.80
2023-05-12T02:33:01.658Z,5.70
2023-05-12T02:34:01.947Z,4.10
2023-05-12T02:35:01.571Z,5.60
2023-05-12T02:36:01.547Z,4.50
2023-05-12T02:37:01.569Z,3.60
2023-05-12T02:38:01.555Z,4.90
2023-05-12T02:39:01.543Z,4.90
2023-05-12T02:40:01.507Z,3.50
2023-05-12T02:41:01.503Z,5.90
2023-05-12T02:42:01.466Z,3.60
2023-05-12T02:43:01.486Z,6.10
2023-05-12T02:44:01.473Z,3.60
2023-05-12T02:45:01.465Z,4.70
2023-05-12T02:46:01.540Z,4.80
2023-05-12T02:47:01.482Z,5.00
2023-05-12T02:48:01.445Z,5.00
2023-05-12T02:49:01.443Z,4.00
2023-05-12T02:50:01.436Z,3.10
2023-05-12T02:51:01.410Z,6.10
2023-05-12T02:52:01.375Z,4.00
2023-05-12T02:53:01.404Z,3.70
2023-05-12T02:54:01.352Z,4.20
2023-05-12T02:55:01.379Z,5.20
2023-05-12T02:56:01.337Z,2.90
2023-05-12T02:57:01.362Z,5.10
2023-05-12T02:58:01.318Z,4.20
2023-05-12T02:59:01.332Z,4.80
2023-05-12T03:00:01.314Z,4.50
2023-05-12T03:01:10.224Z,5.30
2023-05-12T03:02:01.366Z,3.80
2023-05-12T03:03:01.393Z,4.60
2023-05-12T03:04:01.251Z,4.50
2023-05-12T03:05:01.289Z,6.20
2023-05-12T03:06:01.229Z,5.20
2023-05-12T03:07:01.246Z,5.90
2023-05-12T03:08:01.226Z,4.70
2023-05-12T03:09:01.278Z,3.80
2023-05-12T03:10:01.195Z,4.80
2023-05-12T03:11:01.225Z,5.40
2023-05-12T03:12:01.166Z,3.10
2023-05-12T03:13:01.169Z,7.00
2023-05-12T03:14:01.200Z,5.90
2023-05-12T03:15:01.154Z,3.70
2023-05-12T03:16:01.231Z,5.00
2023-05-12T03:17:01.204Z,5.50
2023-05-12T03:18:01.151Z,4.70
2023-05-12T03:19:01.146Z,5.90
2023-05-12T03:20:01.106Z,4.70
2023-05-12T03:21:01.088Z,3.10
2023-05-12T03:22:01.115Z,4.30
2023-05-12T03:23:01.064Z,3.30
2023-05-12T03:24:01.062Z,4.00
2023-05-12T03:25:01.050Z,4.20
2023-05-12T03:26:01.020Z,3.10
2023-05-12T03:27:01.038Z,6.50
2023-05-12T03:28:00.994Z,5.00
2023-05-12T03:29:01.032Z,3.90
2023-05-12T03:30:00.980Z,4.20
2023-05-12T03:31:01.021Z,4.30
2023-05-12T03:32:00.951Z,4.40
2023-05-12T03:33:01.043Z,3.10
2023-05-12T03:34:00.942Z,4.00
2023-05-12T03:35:00.956Z,4.10
2023-05-12T03:36:00.906Z,3.70
2023-05-12T03:37:00.916Z,4.60
2023-05-12T03:38:00.896Z,6.70
2023-05-12T03:39:00.921Z,3.10
2023-05-12T03:40:00.880Z,6.00
2023-05-12T03:41:00.876Z,5.00
2023-05-12T03:42:00.851Z,2.90
2023-05-12T03:43:00.853Z,3.10
2023-05-12T03:44:00.817Z,3.60
2023-05-12T03:45:00.858Z,4.50
2023-05-12T03:46:00.889Z,3.30
2023-05-12T03:47:00.965Z,3.10
2023-05-12T03:48:00.844Z,2.60
2023-05-12T03:49:00.790Z,5.40
2023-05-12T03:50:00.762Z,3.20
2023-05-12T03:51:00.810Z,3.00
2023-05-12T03:52:00.746Z,4.30
2023-05-12T03:53:00.762Z,4.40
2023-05-12T03:54:00.705Z,2.10
2023-05-12T03:55:00.746Z,3.60
2023-05-12T03:56:00.702Z,4.50
2023-05-12T03:57:00.726Z,4.40
2023-05-12T03:58:00.678Z,5.40
2023-05-12T03:59:00.695Z,4.00
2023-05-12T04:00:00.671Z,3.90
2023-05-12T04:01:00.662Z,3.30
2023-05-12T04:02:00.711Z,5.30
2023-05-12T04:03:00.771Z,4.50
2023-05-12T04:04:00.721Z,3.30
2023-05-12T04:05:00.669Z,3.00
2023-05-12T04:06:00.620Z,3.00
2023-05-12T04:07:00.601Z,2.90
2023-05-12T04:08:00.602Z,2.90
2023-05-12T04:09:00.625Z,6.10
2023-05-12T04:10:00.551Z,2.40
2023-05-12T04:11:00.561Z,5.00
2023-05-12T04:12:00.537Z,4.10
2023-05-12T04:13:00.549Z,4.70
2023-05-12T04:14:00.510Z,3.10
2023-05-12T04:15:00.562Z,3.70
2023-05-12T04:16:00.518Z,4.80
2023-05-12T04:17:00.569Z,3.80
2023-05-12T04:18:00.494Z,3.60
2023-05-12T04:19:00.568Z,3.00
2023-05-12T04:20:00.450Z,4.30
2023-05-12T04:21:00.516Z,6.70
2023-05-12T04:22:00.451Z,3.40
2023-05-12T04:23:00.447Z,4.30
2023-05-12T04:24:00.407Z,4.20
2023-05-12T04:25:00.422Z,5.10
2023-05-12T04:26:00.394Z,4.30
2023-05-12T04:27:00.429Z,4.30
2023-05-12T04:28:00.389Z,3.20
2023-05-12T04:29:00.377Z,6.20
2023-05-12T04:30:00.340Z,3.00
2023-05-12T04:31:00.347Z,3.20
2023-05-12T04:32:00.395Z,3.90
2023-05-12T04:33:00.390Z,2.50
2023-05-12T04:34:00.299Z,2.50
2023-05-12T04:35:00.310Z,5.00
2023-05-12T04:36:00.282Z,3.50
2023-05-12T04:37:00.295Z,4.50
2023-05-12T04:38:00.268Z,2.80
2023-05-12T04:39:00.299Z,5.40
2023-05-12T04:40:00.234Z,4.80
2023-05-12T04:41:00.269Z,3.90
2023-05-12T04:42:00.217Z,3.20
2023-05-12T04:43:00.230Z,4.50
2023-05-12T04:44:00.596Z,4.50
2023-05-12T04:45:00.262Z,4.40
2023-05-12T04:46:00.616Z,4.30
2023-05-12T04:47:00.220Z,3.00
2023-05-12T04:48:00.224Z,3.50
2023-05-12T04:49:00.198Z,5.00
2023-05-12T04:50:00.176Z,4.70
2023-05-12T04:51:00.194Z,2.80
2023-05-12T04:52:00.141Z,4.40
2023-05-12T04:53:00.150Z,1.80
2023-05-12T04:54:00.122Z,2.90
2023-05-12T04:55:00.171Z,2.90
2023-05-12T04:56:00.125Z,4.10
2023-05-12T04:57:00.146Z,3.90
2023-05-12T04:58:00.081Z,3.20
2023-05-12T04:59:00.056Z,3.80
2023-05-12T05:00:00.060Z,2.80
2023-05-12T05:01:00.061Z,3.10
2023-05-12T05:02:00.025Z,2.00
2023-05-12T05:03:00.131Z,2.60
2023-05-12T05:04:00.141Z,2.50
2023-05-12T05:05:00.029Z,2.50
2023-05-12T05:05:59.963Z,3.80
2023-05-12T05:06:59.982Z,4.30
2023-05-12T05:07:59.952Z,2.60
2023-05-12T05:08:59.999Z,2.20
2023-05-12T05:09:59.921Z,4.60
2023-05-12T05:10:59.944Z,3.70
2023-05-12T05:11:59.899Z,2.30
2023-05-12T05:12:59.915Z,2.00
2023-05-12T05:13:59.881Z,3.10
2023-05-12T05:14:59.955Z,3.00
2023-05-12T05:15:59.879Z,3.70
2023-05-12T05:16:59.874Z,2.10
2023-05-12T05:18:01.628Z,3.60
2023-05-12T05:18:59.885Z,2.90
2023-05-12T05:20:00.153Z,4.50
2023-05-12T05:20:59.897Z,3.10
2023-05-12T05:21:59.799Z,2.60
2023-05-12T05:22:59.814Z,3.10
2023-05-12T05:23:59.767Z,3.20
2023-05-12T05:24:59.782Z,2.90
2023-05-12T05:25:59.744Z,3.20
2023-05-12T05:26:59.806Z,2.70
2023-05-12T05:27:59.852Z,2.70
2023-05-12T05:29:00.029Z,3.10
2023-05-12T05:29:59.741Z,1.60
2023-05-12T05:30:59.738Z,3.20
2023-05-12T05:31:59.696Z,2.70
2023-05-12T05:33:00.035Z,2.40
2023-05-12T05:33:59.702Z,3.60
2023-05-12T05:34:59.691Z,2.00
2023-05-12T05:35:59.653Z,3.70
2023-05-12T05:36:59.664Z,1.40
2023-05-12T05:37:59.629Z,2.90
2023-05-12T05:38:59.671Z,3.90
2023-05-12T05:39:59.599Z,2.10
2023-05-12T05:40:59.719Z,2.70
2023-05-12T05:41:59.659Z,3.20
2023-05-12T05:42:59.586Z,2.60
2023-05-12T05:43:59.584Z,1.90
2023-05-12T05:44:59.616Z,3.50
2023-05-12T05:45:59.533Z,5.70
2023-05-12T05:46:59.669Z,3.30
2023-05-12T05:47:59.575Z,2.00
2023-05-12T05:48:59.530Z,1.70
2023-05-12T05:49:59.589Z,2.30
2023-05-12T05:50:59.526Z,3.20
2023-05-12T05:51:59.564Z,4.00
2023-05-12T05:52:59.499Z,2.30
2023-05-12T05:53:59.466Z,1.90
2023-05-12T05:54:59.483Z,2.70
2023-05-12T05:55:59.443Z,2.90
2023-05-12T05:56:59.469Z,3.00
2023-05-12T05:57:59.419Z,1.90
2023-05-12T05:58:59.422Z,2.50
2023-05-12T05:59:59.390Z,4.20
2023-05-12T06:00:59.401Z,3.30
2023-05-12T06:01:59.426Z,1.40
2023-05-12T06:02:59.476Z,3.50
2023-05-12T06:03:59.586Z,1.40
2023-05-12T06:04:59.405Z,2.70
2023-05-12T06:05:59.331Z,2.40
2023-05-12T06:06:59.332Z,3.60
2023-05-12T06:07:59.327Z,2.80
2023-05-12T06:08:59.346Z,3.30
2023-05-12T06:09:59.300Z,2.50
2023-05-12T06:10:59.298Z,1.70
2023-05-12T06:11:59.269Z,3.70
2023-05-12T06:12:59.288Z,2.90
2023-05-12T06:13:59.263Z,2.10
2023-05-12T06:14:59.285Z,2.20
2023-05-12T06:15:59.212Z,2.00
2023-05-12T06:16:59.346Z,2.80
2023-05-12T06:17:59.243Z,4.60
2023-05-12T06:18:59.245Z,1.90
2023-05-12T06:19:59.196Z,2.20
2023-05-12T06:20:59.209Z,3.40
2023-05-12T06:21:59.152Z,4.40
2023-05-12T06:22:59.155Z,3.60
2023-05-12T06:23:59.170Z,3.10
2023-05-12T06:24:59.158Z,4.20
2023-05-12T06:25:59.173Z,3.90
2023-05-12T06:27:00.694Z,5.00
2023-05-12T06:27:59.114Z,4.50
2023-05-12T06:28:59.079Z,5.90
2023-05-12T06:29:59.109Z,4.90
2023-05-12T06:30:59.060Z,3.80
2023-05-12T06:31:59.756Z,4.70
2023-05-12T06:32:59.089Z,4.90
2023-05-12T06:33:59.051Z,4.50
2023-05-12T06:34:59.077Z,4.00
2023-05-12T06:35:59.081Z,5.90
2023-05-12T06:36:59.005Z,6.40
2023-05-12T06:37:59.021Z,7.10
2023-05-12T06:38:58.999Z,7.70
2023-05-12T06:39:58.993Z,6.40
2023-05-12T06:40:58.963Z,7.00
2023-05-12T06:41:58.969Z,19.00
2023-05-12T06:42:58.930Z,35.00
2023-05-12T06:43:58.952Z,53.20
2023-05-12T06:44:58.964Z,48.50
2023-05-12T06:45:59.012Z,50.90
2023-05-12T06:46:58.899Z,49.90
2023-05-12T06:47:58.938Z,43.50
2023-05-12T06:48:58.873Z,35.20
2023-05-12T06:49:58.891Z,34.00
2023-05-12T06:50:59.213Z,38.80
2023-05-12T06:51:58.866Z,38.80
2023-05-12T06:52:58.837Z,38.20
2023-05-12T06:53:58.841Z,32.60
2023-05-12T06:54:58.826Z,30.90
2023-05-12T06:55:58.832Z,28.70
2023-05-12T06:56:58.824Z,26.40
2023-05-12T06:57:58.849Z,23.80
2023-05-12T06:58:58.770Z,23.50
2023-05-12T06:59:58.866Z,22.20
2023-05-12T07:00:58.760Z,22.40
2023-05-12T07:01:58.887Z,22.00
2023-05-12T07:02:58.825Z,23.30
2023-05-12T07:03:58.780Z,23.30
2023-05-12T07:04:58.772Z,22.20
2023-05-12T07:05:58.745Z,20.60
2023-05-12T07:06:58.712Z,19.10
2023-05-12T07:07:58.690Z,17.00
2023-05-12T07:08:58.683Z,17.30
2023-05-12T07:09:58.674Z,17.60
2023-05-12T07:10:58.643Z,16.10
2023-05-12T07:11:58.658Z,17.70
2023-05-12T07:12:58.628Z,15.90
2023-05-12T07:13:58.642Z,15.60
2023-05-12T07:14:58.653Z,14.40
2023-05-12T07:15:59.644Z,14.60
2023-05-12T07:16:58.576Z,13.50
2023-05-12T07:17:58.641Z,13.90
2023-05-12T07:18:58.685Z,14.30
2023-05-12T07:19:58.625Z,15.20
2023-05-12T07:20:58.559Z,14.40
2023-05-12T07:21:58.572Z,13.30
2023-05-12T07:22:58.523Z,14.40
2023-05-12T07:23:58.522Z,14.80
2023-05-12T07:24:58.504Z,14.10
2023-05-12T07:25:58.503Z,14.10
2023-05-12T07:26:58.502Z,15.60
2023-05-12T07:27:58.490Z,14.30
2023-05-12T07:28:58.452Z,15.20
2023-05-12T07:29:58.459Z,13.20
2023-05-12T07:30:58.475Z,15.10
2023-05-12T07:31:58.439Z,14.90
2023-05-12T07:32:58.454Z,14.10
2023-05-12T07:33:58.424Z,14.20
2023-05-12T07:34:58.387Z,14.60
2023-05-12T07:35:58.400Z,14.70
2023-05-12T07:36:58.380Z,13.10
2023-05-12T07:37:58.382Z,13.50
2023-05-12T07:38:58.368Z,15.50
2023-05-12T07:39:58.354Z,14.50
2023-05-12T07:40:58.356Z,14.20
2023-05-12T07:41:58.338Z,14.20
2023-05-12T07:42:58.307Z,13.20
2023-05-12T07:43:58.316Z,13.10
2023-05-12T07:44:58.330Z,13.90
2023-05-12T07:45:58.313Z,14.10
2023-05-12T07:46:58.288Z,14.20
2023-05-12T07:47:58.373Z,13.90
2023-05-12T07:48:58.245Z,12.80
2023-05-12T07:49:58.313Z,13.40
2023-05-12T07:50:58.242Z,13.60
2023-05-12T07:51:58.228Z,13.40
2023-05-12T07:52:58.225Z,13.90
2023-05-12T07:53:58.261Z,14.50
2023-05-12T07:54:58.175Z,13.30
2023-05-12T07:55:58.221Z,13.70
2023-05-12T07:56:58.172Z,12.30
2023-05-12T07:57:58.166Z,11.90
2023-05-12T07:58:58.140Z,11.70
2023-05-12T07:59:59.559Z,11.70
2023-05-12T08:00:58.118Z,11.80
2023-05-12T08:01:58.138Z,11.50
2023-05-12T08:02:58.348Z,11.80
2023-05-12T08:03:58.281Z,11.00
2023-05-12T08:04:58.067Z,11.00
2023-05-12T08:05:58.099Z,11.40
2023-05-12T08:06:58.055Z,10.60
2023-05-12T08:07:58.065Z,11.10
2023-05-12T08:08:58.110Z,11.90
2023-05-12T08:09:58.067Z,11.20
2023-05-12T08:10:58.030Z,10.60
2023-05-12T08:11:58.022Z,11.30
2023-05-12T08:12:57.985Z,10.10
2023-05-12T08:13:58.026Z,11.20
2023-05-12T08:14:57.980Z,9.70
2023-05-12T08:15:58.032Z,9.80
2023-05-12T08:16:57.976Z,11.80
2023-05-12T08:17:58.025Z,10.00
2023-05-12T08:18:58.007Z,9.60
2023-05-12T08:19:57.953Z,11.00
2023-05-12T08:20:57.952Z,11.10
2023-05-12T08:21:57.910Z,9.90
2023-05-12T08:22:57.874Z,8.70
2023-05-12T08:23:58.711Z,9.20
2023-05-12T08:24:57.877Z,9.60
2023-05-12T08:25:57.877Z,10.70
2023-05-12T08:26:57.861Z,10.20
2023-05-12T08:27:57.842Z,9.50
2023-05-12T08:28:57.839Z,9.00
2023-05-12T08:29:57.827Z,8.70
2023-05-12T08:30:57.832Z,8.80
2023-05-12T08:31:57.806Z,9.30
2023-05-12T08:32:57.886Z,9.00
2023-05-12T08:34:08.923Z,9.40
2023-05-12T08:34:57.746Z,9.10
2023-05-12T08:35:57.776Z,9.40
2023-05-12T08:36:57.957Z,8.80
2023-05-12T08:37:57.748Z,8.60
2023-05-12T08:38:57.749Z,8.60
2023-05-12T08:39:57.717Z,10.90
2023-05-12T08:40:57.682Z,9.50
2023-05-12T08:41:57.702Z,8.60
2023-05-12T08:42:59.262Z,8.70
2023-05-12T08:43:57.686Z,9.90
2023-05-12T08:44:57.675Z,7.50
2023-05-12T08:45:57.888Z,9.30
2023-05-12T08:46:57.853Z,9.30
2023-05-12T08:47:57.701Z,9.10
2023-05-12T08:48:57.648Z,9.00
2023-05-12T08:49:57.648Z,9.10
2023-05-12T08:50:57.990Z,8.90
2023-05-12T08:51:58.477Z,9.40
2023-05-12T08:52:57.665Z,8.60
2023-05-12T08:53:57.651Z,8.50
2023-05-12T08:54:57.681Z,8.20
2023-05-12T08:57:09.999Z,9.50
2023-05-12T08:57:15.446Z,8.30
2023-05-12T08:57:57.748Z,8.10
2023-05-12T08:58:58.249Z,9.10
2023-05-12T08:59:57.527Z,8.80
2023-05-12T09:00:57.596Z,8.70
2023-05-12T09:01:57.537Z,8.50
2023-05-12T09:02:57.500Z,8.80
2023-05-12T09:03:57.488Z,8.70
2023-05-12T09:04:57.430Z,6.60
2023-05-12T09:05:57.458Z,8.40
2023-05-12T09:06:57.410Z,8.50
2023-05-12T09:07:57.477Z,9.10
2023-05-12T09:08:57.407Z,8.50
2023-05-12T09:09:57.408Z,7.20
2023-05-12T09:10:57.430Z,8.60
2023-05-12T09:11:57.380Z,6.90
2023-05-12T09:12:57.357Z,7.90
2023-05-12T09:13:57.391Z,8.00
2023-05-12T09:14:57.384Z,8.30
2023-05-12T09:15:57.403Z,7.00
2023-05-12T09:16:57.307Z,7.70
2023-05-12T09:17:57.368Z,7.70
2023-05-12T09:18:57.366Z,8.00
2023-05-12T09:19:57.317Z,7.40
2023-05-12T09:20:57.313Z,8.80
2023-05-12T09:21:57.290Z,7.20
2023-05-12T09:22:57.244Z,8.10
2023-05-12T09:23:57.257Z,7.80
2023-05-12T09:24:57.270Z,8.60
2023-05-12T09:25:57.241Z,5.80
2023-05-12T09:26:57.229Z,7.20
2023-05-12T09:27:57.228Z,7.90
2023-05-12T09:28:57.200Z,7.90
2023-05-12T09:29:59.689Z,7.30
2023-05-12T09:30:57.183Z,8.50
2023-05-12T09:31:57.260Z,6.80
2023-05-12T09:32:57.241Z,7.40
2023-05-12T09:33:57.159Z,6.70
2023-05-12T09:34:57.117Z,6.50
2023-05-12T09:35:57.148Z,6.10
2023-05-12T09:36:57.107Z,7.60
2023-05-12T09:37:57.116Z,6.90
2023-05-12T09:38:57.097Z,7.30
2023-05-12T09:39:57.108Z,7.50
2023-05-12T09:40:57.058Z,6.90
2023-05-12T09:41:57.082Z,6.40
2023-05-12T09:42:57.052Z,8.10
2023-05-12T09:43:57.047Z,7.50
2023-05-12T09:44:57.026Z,7.60
2023-05-12T09:45:57.048Z,7.60
2023-05-12T09:46:56.994Z,7.10
2023-05-12T09:47:57.059Z,8.10
2023-05-12T09:48:56.985Z,7.80
2023-05-12T09:49:56.984Z,6.50
2023-05-12T09:50:56.997Z,7.40
2023-05-12T09:51:56.968Z,7.20
2023-05-12T09:52:57.542Z,5.90
2023-05-12T09:53:56.948Z,8.60
2023-05-12T09:54:56.909Z,7.00
2023-05-12T09:55:56.949Z,7.20
2023-05-12T09:56:56.903Z,6.00
2023-05-12T09:57:56.900Z,7.20
2023-05-12T09:58:56.870Z,6.40
2023-05-12T09:59:56.915Z,6.90
2023-05-12T10:01:56.894Z,7.00
2023-05-12T10:02:56.888Z,7.20
2023-05-12T10:03:56.838Z,6.00
2023-05-12T10:04:56.873Z,7.00
2023-05-12T10:05:56.824Z,5.60
2023-05-12T10:06:56.773Z,5.80
2023-05-12T10:07:56.800Z,5.60
2023-05-12T10:08:56.776Z,5.50
2023-05-12T10:09:56.773Z,6.80
2023-05-12T10:10:56.746Z,7.90
2023-05-12T10:11:56.754Z,7.20
2023-05-12T10:12:56.737Z,6.60
2023-05-12T10:13:56.988Z,5.90
2023-05-12T10:14:56.716Z,6.10
2023-05-12T10:15:57.378Z,7.80
2023-05-12T10:16:56.742Z,7.00
2023-05-12T10:17:56.719Z,6.40
2023-05-12T10:18:56.799Z,6.80
2023-05-12T10:19:56.680Z,5.40
2023-05-12T10:20:56.691Z,5.80
2023-05-12T10:21:56.666Z,7.00
2023-05-12T10:22:56.635Z,5.20
2023-05-12T10:23:56.671Z,5.30
2023-05-12T10:24:56.607Z,6.70
2023-05-12T10:25:56.621Z,5.00
2023-05-12T10:26:56.669Z,6.50
2023-05-12T10:27:56.628Z,5.90
2023-05-12T10:28:56.559Z,5.70
2023-05-12T10:29:56.595Z,5.40
2023-05-12T10:30:56.567Z,4.90
2023-05-12T10:31:56.560Z,6.00
2023-05-12T10:32:56.566Z,5.40
2023-05-12T10:33:56.537Z,6.00
2023-05-12T10:34:56.496Z,6.70
2023-05-12T10:35:56.506Z,6.20
2023-05-12T10:36:56.499Z,6.20
2023-05-12T10:37:56.514Z,7.30
2023-05-12T10:38:56.533Z,6.80
2023-05-12T10:39:56.443Z,6.00
2023-05-12T10:40:56.468Z,4.40
2023-05-12T10:41:56.426Z,5.90
2023-05-12T10:42:56.457Z,5.70
2023-05-12T10:43:56.420Z,8.60
2023-05-12T10:44:56.761Z,5.30
2023-05-12T10:45:56.417Z,6.10
2023-05-12T10:46:56.410Z,5.10
2023-05-12T10:47:56.419Z,6.90
2023-05-12T10:48:56.438Z,7.50
2023-05-12T10:49:56.356Z,5.70
2023-05-12T10:50:56.389Z,5.20
2023-05-12T10:51:56.332Z,7.10
2023-05-12T10:52:56.333Z,7.20
2023-05-12T10:53:56.305Z,5.70
2023-05-12T10:54:56.338Z,7.20
2023-05-12T10:55:56.457Z,5.60
2023-05-12T10:56:56.545Z,6.20
2023-05-12T10:57:56.622Z,6.60
2023-05-12T10:58:56.377Z,7.90
2023-05-12T10:59:56.898Z,5.80
2023-05-12T11:00:57.030Z,5.80
2023-05-12T11:01:56.765Z,6.40
2023-05-12T11:03:00.627Z,7.10
2023-05-12T11:03:56.319Z,5.10
2023-05-12T11:04:56.401Z,6.80
2023-05-12T11:05:56.287Z,6.70
2023-05-12T11:06:56.344Z,7.10
2023-05-12T11:07:57.022Z,6.60
2023-05-12T11:08:57.076Z,8.00
2023-05-12T11:09:59.510Z,7.30
2023-05-12T11:10:56.203Z,5.50
2023-05-12T11:11:56.602Z,7.50
2023-05-12T11:12:56.187Z,6.20
2023-05-12T11:13:56.106Z,7.00
2023-05-12T11:14:56.131Z,6.80
2023-05-12T11:15:56.113Z,7.80
2023-05-12T11:16:56.132Z,8.10
2023-05-12T11:17:56.106Z,6.40
2023-05-12T11:18:56.117Z,8.00
2023-05-12T11:19:56.045Z,7.60
2023-05-12T11:20:56.062Z,7.40
2023-05-12T11:21:56.151Z,8.40
2023-05-12T11:22:56.059Z,7.50
2023-05-12T11:23:56.118Z,6.40
2023-05-12T11:24:56.175Z,7.50
2023-05-12T11:25:56.045Z,6.80
2023-05-12T11:26:56.029Z,7.80
2023-05-12T11:27:55.964Z,7.00
2023-05-12T11:28:55.983Z,5.20
2023-05-12T11:29:55.996Z,6.90
2023-05-12T11:30:56.063Z,5.00
2023-05-12T11:31:55.965Z,6.80
2023-05-12T11:32:55.995Z,6.30
2023-05-12T11:34:08.260Z,6.30
2023-05-12T11:34:55.912Z,6.70
2023-05-12T11:35:55.881Z,6.30
2023-05-12T11:36:55.886Z,5.40
2023-05-12T11:37:55.858Z,6.90
2023-05-12T11:38:55.888Z,6.40
2023-05-12T11:39:55.837Z,6.20
2023-05-12T11:40:55.850Z,5.60
2023-05-12T11:42:05.547Z,5.40
2023-05-12T11:42:56.002Z,7.20
2023-05-12T11:43:55.797Z,6.90
2023-05-12T11:44:55.845Z,7.70
2023-05-12T11:45:55.811Z,5.40
2023-05-12T11:46:55.795Z,6.60
2023-05-12T11:47:56.924Z,6.30
2023-05-12T11:48:55.783Z,7.10
2023-05-12T11:49:55.780Z,7.30
2023-05-12T11:50:55.783Z,6.50
2023-05-12T11:51:55.721Z,7.20
2023-05-12T11:52:55.744Z,6.40
2023-05-12T11:53:55.715Z,5.80
2023-05-12T11:54:55.732Z,6.90
2023-05-12T11:55:55.681Z,7.00
2023-05-12T11:56:55.742Z,8.40
2023-05-12T11:57:55.675Z,8.60
2023-05-12T11:58:55.686Z,6.80
2023-05-12T11:59:55.697Z,6.40
2023-05-12T12:00:55.659Z,7.20
2023-05-12T12:01:55.665Z,8.50
2023-05-12T12:02:55.691Z,7.10
2023-05-12T12:03:55.904Z,6.70
2023-05-12T12:04:55.642Z,7.60
2023-05-12T12:05:55.591Z,7.80
2023-05-12T12:06:55.604Z,8.70
2023-05-12T12:07:55.560Z,7.10
2023-05-12T12:08:55.593Z,8.10
2023-05-12T12:09:55.547Z,7.80
2023-05-12T12:10:55.553Z,8.40
2023-05-12T12:11:55.533Z,8.50
2023-05-12T12:12:55.537Z,7.10
2023-05-12T12:13:55.508Z,9.40
2023-05-12T12:14:55.540Z,8.30
2023-05-12T12:15:55.532Z,8.90
2023-05-12T12:16:55.505Z,7.60
2023-05-12T12:17:55.521Z,7.80
2023-05-12T12:18:55.507Z,7.30
2023-05-12T12:19:55.446Z,7.00
2023-05-12T12:20:55.472Z,8.10
2023-05-12T12:21:55.418Z,6.90
2023-05-12T12:22:55.435Z,8.40
2023-05-12T12:23:55.399Z,9.70
2023-05-12T12:24:55.426Z,7.10
2023-05-12T12:25:55.390Z,9.20
2023-05-12T12:26:55.395Z,8.30
2023-05-12T12:27:55.372Z,7.50
2023-05-12T12:28:55.466Z,7.30
2023-05-12T12:29:55.351Z,7.20
2023-05-12T12:30:55.367Z,7.30
2023-05-12T12:31:55.322Z,6.50
2023-05-12T12:32:55.386Z,9.10
2023-05-12T12:33:55.317Z,6.40
2023-05-12T12:34:55.312Z,8.70
2023-05-12T12:35:55.286Z,7.40
2023-05-12T12:36:55.282Z,8.20
2023-05-12T12:37:55.284Z,7.70
2023-05-12T12:38:55.283Z,8.60
2023-05-12T12:39:55.226Z,8.40
2023-05-12T12:40:55.260Z,8.90
2023-05-12T12:41:55.227Z,10.10
2023-05-12T12:42:55.236Z,9.10
2023-05-12T12:43:55.192Z,8.20
2023-05-12T12:44:55.264Z,7.20
2023-05-12T12:45:55.235Z,8.50
2023-05-12T12:46:55.182Z,8.00
2023-05-12T12:47:55.228Z,7.80
2023-05-12T12:48:55.180Z,7.70
2023-05-12T12:49:55.129Z,7.50
2023-05-12T12:50:55.150Z,9.10
2023-05-12T12:51:55.097Z,8.70
2023-05-12T12:52:55.113Z,8.30
2023-05-12T12:53:55.078Z,8.40
2023-05-12T12:54:55.117Z,8.60
2023-05-12T12:55:55.062Z,13.60
2023-05-12T12:56:55.102Z,9.30
2023-05-12T12:57:55.032Z,10.30
2023-05-12T12:58:55.053Z,7.20
2023-05-12T12:59:55.120Z,8.50
2023-05-12T13:00:55.113Z,8.10
2023-05-12T13:01:55.024Z,8.10
2023-05-12T13:02:56.089Z,8.40
2023-05-12T13:03:55.046Z,6.00
2023-05-12T13:04:54.983Z,7.10
2023-05-12T13:05:54.960Z,11.00
2023-05-12T13:06:54.965Z,8.10
2023-05-12T13:07:54.929Z,9.20
2023-05-12T13:08:54.967Z,11.70
2023-05-12T13:09:54.920Z,11.40
2023-05-12T13:10:55.760Z,33.20
2023-05-12T13:11:54.895Z,18.00
2023-05-12T13:12:54.916Z,12.90
2023-05-12T13:13:54.868Z,10.00
2023-05-12T13:14:54.903Z,8.50